Alfa Germania — C6PL5 — position and weather

sailwx.info

Track history (hours):
 
Tides and Currents Weather Stations Pressure Air Temp Water Temp Dewpoint Dewpoint Depression Visibility Wind Speed Wind Dir Waves Ship Positions

Alfa Germania

Last reported at 2017-Oct-06 13:49 UTC. Time now 2017-Oct-19 16:49 UTC.
Position N 35°53' E 014°48'.
Warning: this ship's position is 13 days out of date.

Length 248 m; draft 9.6 m.

Type: Ship. MMSI: 244660464.

Date/timePositionNaut miles runAvg speedWind from/ knotsBaromVisibWave heightAir tempDewpointWater temp
2017-Oct-06 13:49N 35°53' E 014°48'0 0.0
2017-Oct-06 13:25N 35°53' E 014°48'0 0.0
2017-Oct-06 12:58N 35°53' E 014°48'0 0.0
2017-Oct-06 12:28N 35°53' E 014°48'0 0.0
2017-Oct-06 11:58N 35°53' E 014°48'0 0.1
2017-Oct-06 11:28N 35°53' E 014°48'0 0.0
2017-Oct-06 10:58N 35°53' E 014°48'0 0.0
2017-Oct-06 10:28N 35°53' E 014°48'0 0.0
2017-Oct-06 09:58N 35°53' E 014°48'0 0.0
2017-Oct-06 09:28N 35°53' E 014°48'0 0.0
2017-Oct-06 08:58N 35°53' E 014°48'0 0.0
2017-Oct-06 08:28N 35°53' E 014°48'0 0.0
2017-Oct-06 07:58N 35°53' E 014°48'0 0.0
2017-Oct-06 07:28N 35°53' E 014°48'0 0.0
2017-Oct-06 06:58N 35°53' E 014°48'0 0.0
2017-Oct-06 06:28N 35°53' E 014°48'0 0.1
2017-Oct-06 05:58N 35°53' E 014°48'0 0.1
2017-Oct-06 05:28N 35°53' E 014°47'0 0.0
2017-Oct-06 04:58N 35°53' E 014°47'0 0.1
2017-Oct-06 04:28N 35°53' E 014°47'0 0.0
2017-Oct-06 03:58N 35°53' E 014°47'0 0.0
2017-Oct-06 03:28N 35°53' E 014°47'0 0.0
2017-Oct-06 02:58N 35°53' E 014°47'0 0.1
2017-Oct-06 02:28N 35°53' E 014°47'0 0.1
2017-Oct-06 01:55N 35°53' E 014°47'0 0.0
2017-Oct-06 01:25N 35°53' E 014°47'0 0.0
2017-Oct-06 00:58N 35°53' E 014°47'0 0.1
2017-Oct-06 00:28N 35°53' E 014°47'0 0.0
2017-Oct-05 23:55N 35°53' E 014°47'0 0.0
2017-Oct-05 23:28N 35°53' E 014°47'0 0.0
2017-Oct-05 22:55N 35°53' E 014°47'0 0.1
2017-Oct-05 22:22N 35°53' E 014°47'0 0.0
2017-Oct-05 21:58N 35°53' E 014°47'0 0.0
2017-Oct-05 21:28N 35°53' E 014°47'0 0.0
2017-Oct-05 20:58N 35°53' E 014°47'0 0.0
2017-Oct-05 20:28N 35°53' E 014°47'0 0.0
2017-Oct-05 19:55N 35°53' E 014°47'0 0.1
2017-Oct-05 19:28N 35°53' E 014°47'0 0.2
2017-Oct-05 19:00N 35°53' E 014°47'1 1.4
2017-Oct-05 18:29N 35°54' E 014°47'1 2.8
2017-Oct-05 18:01N 35°55' E 014°46'4 6.8
2017-Oct-05 17:30N 35°57' E 014°42'3 6.8
2017-Oct-05 17:00N 35°59' E 014°39'6 3.9
2017-Oct-05 15:30N 36°01' E 014°32'0 0.9
2017-Oct-05 15:00N 36°01' E 014°33'1 1.2
2017-Oct-05 14:30N 36°00' E 014°33'1 1.3
2017-Oct-05 14:00N 35°60' E 014°34'1 1.2
2017-Oct-05 13:30N 35°60' E 014°35'1 1.3
2017-Oct-05 13:00N 35°59' E 014°35'1 1.8
2017-Oct-05 12:30N 35°58' E 014°36'1 2.3
2017-Oct-05 12:00N 35°57' E 014°36'2 3.7
2017-Oct-05 11:30N 35°57' E 014°39'2 4.9
2017-Oct-05 11:00N 35°58' E 014°41'3 5.2
2017-Oct-05 10:30N 35°59' E 014°44'3 5.2
2017-Oct-05 10:00N 35°59' E 014°48'3 5.2
2017-Oct-05 09:29N 35°59' E 014°51'1 1.5
2017-Oct-05 08:59N 35°58' E 014°52'0 0.1
2017-Oct-05 08:13N 35°58' E 014°52'0 0.2
2017-Oct-05 07:58N 35°58' E 014°52'0 0.0
2017-Oct-05 07:28N 35°58' E 014°52'0 0.0
2017-Oct-05 06:58N 35°58' E 014°52'0 0.1
2017-Oct-05 06:19N 35°58' E 014°52'0 0.0
2017-Oct-05 05:55N 35°58' E 014°52'0 0.0
2017-Oct-05 05:10N 35°58' E 014°52'0 0.1
2017-Oct-05 04:58N 35°58' E 014°52'0 0.0
2017-Oct-05 04:28N 35°58' E 014°52'0 0.0
2017-Oct-05 03:52N 35°58' E 014°52'0 0.0
2017-Oct-05 03:28N 35°58' E 014°52'0 0.0
2017-Oct-05 02:19N 35°58' E 014°52'0 0.0
2017-Oct-05 01:55N 35°58' E 014°52'0 0.0
2017-Oct-05 01:28N 35°58' E 014°52'0 0.0
2017-Oct-05 00:55N 35°58' E 014°52'0 0.1
2017-Oct-05 00:28N 35°58' E 014°52'0 0.0
2017-Oct-04 23:58N 35°58' E 014°52'0 0.0
2017-Oct-04 23:28N 35°58' E 014°52'0 0.0
2017-Oct-04 22:58N 35°58' E 014°52'0 0.0
2017-Oct-04 22:25N 35°58' E 014°52'0 0.0
2017-Oct-04 21:46N 35°58' E 014°52'0 0.0
2017-Oct-04 21:22N 35°58' E 014°52'0 0.0
2017-Oct-04 20:58N 35°58' E 014°52'0 0.0
2017-Oct-04 19:34N 35°58' E 014°52'0 0.0
2017-Oct-04 18:13N 35°58' E 014°52'0 0.0
2017-Oct-04 17:31N 35°58' E 014°52'0 0.0
2017-Oct-04 17:13N 35°58' E 014°52'0 0.0
2017-Oct-04 16:22N 35°58' E 014°52'0 0.1
2017-Oct-04 15:55N 35°58' E 014°52'0 0.1
2017-Oct-04 15:25N 35°58' E 014°52'0 0.0
2017-Oct-04 14:58N 35°58' E 014°52'0 0.0
2017-Oct-04 14:13N 35°58' E 014°52'0 0.0
2017-Oct-04 13:55N 35°58' E 014°52'0 0.0
2017-Oct-04 13:16N 35°58' E 014°52'0 0.1
2017-Oct-04 12:52N 35°58' E 014°52'0 0.0
2017-Oct-04 12:13N 35°58' E 014°52'0 0.0
2017-Oct-04 11:49N 35°58' E 014°52'0 0.2
2017-Oct-04 11:28N 35°58' E 014°52'0 0.0
2017-Oct-04 08:43N 35°58' E 014°52'0 0.0
2017-Oct-04 00:19N 35°58' E 014°52'0 0.0
2017-Oct-03 23:40N 35°58' E 014°52'0 0.1
2017-Oct-03 23:22N 35°58' E 014°52'0 0.0
2017-Oct-03 22:25N 35°58' E 014°52'0 0.1
2017-Oct-03 21:55N 35°58' E 014°52'0 0.0
2017-Oct-03 21:22N 35°58' E 014°52'0 0.0
2017-Oct-03 20:52N 35°58' E 014°52'0 0.1
2017-Oct-03 20:28N 35°58' E 014°52'0 0.0
2017-Oct-03 19:55N 35°58' E 014°52'0 0.0
2017-Oct-03 19:22N 35°58' E 014°52'0 0.0
2017-Oct-03 18:43N 35°58' E 014°52'0 0.1
2017-Oct-03 18:25N 35°58' E 014°52'0 0.2
2017-Oct-03 17:43N 35°58' E 014°52'0 0.0
2017-Oct-03 15:49N 35°58' E 014°52'0 0.0
2017-Oct-03 15:22N 35°58' E 014°52'0 0.0
2017-Oct-03 11:43N 35°58' E 014°52'0 0.0
2017-Oct-03 11:25N 35°58' E 014°52'0 0.0
2017-Oct-03 10:55N 35°58' E 014°52'0 0.1
2017-Oct-03 10:28N 35°58' E 014°52'0 0.1
2017-Oct-03 09:52N 35°58' E 014°52'0 0.0
2017-Oct-03 09:28N 35°58' E 014°52'0 0.0
2017-Oct-03 08:55N 35°58' E 014°52'0 0.0
2017-Oct-03 08:25N 35°58' E 014°52'0 0.0
2017-Oct-03 07:58N 35°58' E 014°52'0 0.0
2017-Oct-03 07:28N 35°58' E 014°52'0 0.0
2017-Oct-03 06:55N 35°58' E 014°52'0 0.1
2017-Oct-03 06:25N 35°58' E 014°52'0 0.2
2017-Oct-03 05:55N 35°58' E 014°52'0 0.1
2017-Oct-03 04:52N 35°58' E 014°52'0 0.2
2017-Oct-03 04:28N 35°58' E 014°52'0 0.2
2017-Oct-03 03:52N 35°58' E 014°52'0 0.1
2017-Oct-03 03:19N 35°58' E 014°52'0 0.0
2017-Oct-03 01:37N 35°58' E 014°52'0 0.0
2017-Oct-02 22:13N 35°58' E 014°52'0 0.1
2017-Oct-02 20:07N 35°58' E 014°52'0 0.1
2017-Oct-02 19:55N 35°58' E 014°52'0 0.0
2017-Oct-02 16:13N 35°58' E 014°52'0 0.2
2017-Oct-02 15:07N 35°58' E 014°52'0 0.2
2017-Oct-02 14:55N 35°58' E 014°52'0 0.4
2017-Oct-02 14:25N 35°58' E 014°52'0 0.2
2017-Oct-02 13:58N 35°58' E 014°52'0 0.1
2017-Oct-02 12:52N 35°58' E 014°52'0 0.0
2017-Oct-02 09:22N 35°58' E 014°52'0 0.1
2017-Oct-02 08:01N 35°58' E 014°52'0 0.0
2017-Oct-02 06:58N 35°58' E 014°52'0 0.0
2017-Oct-02 05:40N 35°58' E 014°52'0 0.1
2017-Oct-02 05:28N 35°58' E 014°52'0 0.0
2017-Oct-02 04:55N 35°58' E 014°52'0 0.0
2017-Oct-02 04:25N 35°58' E 014°52'0 0.0
2017-Oct-02 03:58N 35°58' E 014°52'0 0.0
2017-Oct-02 03:28N 35°58' E 014°52'0 0.0
2017-Oct-02 02:55N 35°58' E 014°52'0 0.0
2017-Oct-02 02:25N 35°58' E 014°52'0 0.0
2017-Oct-02 01:40N 35°58' E 014°52'0 0.0
2017-Oct-02 01:25N 35°58' E 014°52'0 0.0
2017-Oct-01 20:49N 35°58' E 014°52'0 0.0
2017-Oct-01 20:25N 35°58' E 014°52'0 0.0
2017-Oct-01 19:58N 35°58' E 014°52'0 0.0
2017-Oct-01 19:19N 35°58' E 014°52'0 0.1
2017-Oct-01 18:46N 35°58' E 014°52'0 0.1
2017-Oct-01 18:28N 35°58' E 014°52'0 0.1
2017-Oct-01 16:58N 35°58' E 014°52'0 0.0
2017-Oct-01 16:04N 35°58' E 014°52'0 0.1
2017-Oct-01 15:58N 35°58' E 014°52'0 0.1
2017-Oct-01 15:22N 35°58' E 014°52'0 0.0
2017-Oct-01 14:58N 35°58' E 014°52'0 0.0
2017-Oct-01 14:28N 35°58' E 014°52'0 0.0
2017-Oct-01 13:58N 35°58' E 014°52'0 0.1
2017-Oct-01 13:07N 35°58' E 014°52'0 0.1
2017-Oct-01 11:46N 35°58' E 014°52'0 0.0
2017-Oct-01 11:25N 35°58' E 014°52'0 0.0
2017-Oct-01 10:58N 35°58' E 014°52'0 0.0
2017-Oct-01 10:19N 35°58' E 014°52'0 0.0
2017-Oct-01 09:52N 35°58' E 014°52'0 0.0
2017-Oct-01 06:43N 35°58' E 014°52'0 0.0
2017-Oct-01 06:19N 35°58' E 014°52'0 0.0
2017-Oct-01 05:58N 35°58' E 014°52'0 0.0
2017-Oct-01 05:25N 35°58' E 014°52'0 0.0
2017-Oct-01 04:55N 35°58' E 014°52'0 0.0
2017-Oct-01 04:13N 35°58' E 014°52'0 0.0
2017-Oct-01 03:40N 35°58' E 014°52'0 0.1
2017-Oct-01 03:22N 35°58' E 014°52'0 0.0
2017-Sep-30 00:09N 35°58' E 014°52'0 0.0
2017-Sep-29 23:42N 35°58' E 014°52'0 0.1
2017-Sep-29 23:30N 35°58' E 014°52'0 0.0
2017-Sep-29 21:18N 35°58' E 014°52'0 0.0
2017-Sep-29 18:57N 35°58' E 014°52'0 0.0
2017-Sep-29 18:21N 35°58' E 014°52'0 0.0
2017-Sep-29 16:18N 35°58' E 014°52'0 0.0
2017-Sep-29 15:51N 35°58' E 014°52'0 0.0
2017-Sep-29 15:09N 35°58' E 014°52'0 0.0
2017-Sep-29 15:00N 35°58' E 014°52'0 0.0
2017-Sep-29 14:18N 35°58' E 014°52'0 0.1
2017-Sep-29 13:51N 35°58' E 014°52'0 0.0
2017-Sep-29 13:27N 35°58' E 014°52'0 0.0
2017-Sep-29 12:48N 35°58' E 014°52'0 0.0
2017-Sep-29 12:27N 35°58' E 014°52'0 0.0
2017-Sep-29 12:00N 35°58' E 014°52'0 0.0
2017-Sep-29 11:30N 35°58' E 014°52'0 0.0
2017-Sep-29 11:00N 35°58' E 014°52'0 0.0
2017-Sep-29 06:30N 35°58' E 014°52'0 0.0
2017-Sep-29 06:00N 35°58' E 014°52'0 0.0
2017-Sep-29 00:38N 35°58' E 014°52'0 0.0
2017-Sep-29 00:08N 35°58' E 014°52'0 0.0
2017-Sep-28 23:56N 35°58' E 014°52'0 0.0
2017-Sep-28 22:17N 35°58' E 014°52'0 0.0
2017-Sep-28 21:29N 35°58' E 014°52'0 0.0
2017-Sep-28 18:50N 35°58' E 014°52'0 0.0
2017-Sep-28 18:29N 35°58' E 014°52'0 0.0
2017-Sep-28 17:11N 35°58' E 014°52'0 0.0
2017-Sep-28 16:56N 35°58' E 014°52'0 0.0
2017-Sep-28 16:29N 35°58' E 014°52'0 0.0
2017-Sep-28 15:59N 35°58' E 014°52'0 0.0
2017-Sep-28 15:29N 35°58' E 014°52'0 0.0
2017-Sep-28 13:44N 35°58' E 014°52'0 0.0
2017-Sep-28 13:26N 35°58' E 014°52'0 0.0
2017-Sep-28 12:50N 35°58' E 014°52'0 0.0
2017-Sep-28 12:14N 35°58' E 014°52'0 0.1
2017-Sep-28 11:56N 35°58' E 014°52'0 0.0
2017-Sep-28 11:17N 35°58' E 014°52'0 0.0
2017-Sep-28 06:44N 35°58' E 014°52'0 0.0
2017-Sep-28 06:14N 35°58' E 014°52'0 0.0
2017-Sep-28 05:44N 35°58' E 014°52'0 0.0
2017-Sep-28 04:29N 35°58' E 014°52'0 0.0
2017-Sep-28 02:38N 35°58' E 014°52'0 0.0
2017-Sep-28 00:29N 35°58' E 014°52'0 0.0
2017-Sep-27 23:08N 35°58' E 014°52'0 0.1
2017-Sep-27 22:53N 35°58' E 014°52'0 0.0
2017-Sep-27 21:11N 35°58' E 014°52'0 0.0
2017-Sep-27 20:56N 35°58' E 014°52'0 0.0
2017-Sep-27 19:47N 35°58' E 014°52'0 0.0
2017-Sep-27 19:29N 35°58' E 014°52'0 0.0
2017-Sep-27 17:59N 35°58' E 014°52'0 0.0
2017-Sep-27 17:26N 35°58' E 014°52'0 0.0
2017-Sep-27 16:50N 35°58' E 014°52'0 0.1
2017-Sep-27 16:23N 35°58' E 014°52'0 0.0
2017-Sep-27 15:44N 35°58' E 014°52'0 0.0
2017-Sep-27 15:29N 35°58' E 014°52'0 0.0
2017-Sep-27 14:59N 35°58' E 014°52'0 0.0
2017-Sep-27 14:20N 35°58' E 014°52'0 0.0
2017-Sep-27 13:59N 35°58' E 014°52'0 0.0
2017-Sep-27 13:14N 35°58' E 014°52'0 0.1
2017-Sep-27 12:59N 35°58' E 014°52'0 0.0
2017-Sep-27 12:29N 35°58' E 014°52'0 0.1
2017-Sep-27 11:56N 35°58' E 014°52'0 0.0
2017-Sep-27 11:29N 35°58' E 014°52'0 0.1
2017-Sep-27 10:59N 35°58' E 014°52'0 0.1
2017-Sep-27 10:29N 35°58' E 014°52'0 0.0
2017-Sep-27 07:47N 35°58' E 014°52'  
Track history (hours):
 
Tides and Currents Weather Stations Pressure Air Temp Water Temp Dewpoint Dewpoint Depression Visibility Wind Speed Wind Dir Waves Ship Positions

Alfa Germania

Last reported at 2017-Oct-06 13:49 UTC. Time now 2017-Oct-19 16:49 UTC.
Position N 35°53' E 014°48'.
Warning: this ship's position is 13 days out of date.

Length 248 m; draft 9.6 m.

Type: Ship. MMSI: 244660464.

Date/timePositionNaut miles runAvg speedWind from/ knotsBaromVisibWave heightAir tempDewpointWater temp
2017-Oct-06 13:49N 35°53' E 014°48'0 0.0
2017-Oct-06 13:25N 35°53' E 014°48'0 0.0
2017-Oct-06 12:58N 35°53' E 014°48'0 0.0
2017-Oct-06 12:28N 35°53' E 014°48'0 0.0
2017-Oct-06 11:58N 35°53' E 014°48'0 0.1
2017-Oct-06 11:28N 35°53' E 014°48'0 0.0
2017-Oct-06 10:58N 35°53' E 014°48'0 0.0
2017-Oct-06 10:28N 35°53' E 014°48'0 0.0
2017-Oct-06 09:58N 35°53' E 014°48'0 0.0
2017-Oct-06 09:28N 35°53' E 014°48'0 0.0
2017-Oct-06 08:58N 35°53' E 014°48'0 0.0
2017-Oct-06 08:28N 35°53' E 014°48'0 0.0
2017-Oct-06 07:58N 35°53' E 014°48'0 0.0
2017-Oct-06 07:28N 35°53' E 014°48'0 0.0
2017-Oct-06 06:58N 35°53' E 014°48'0 0.0
2017-Oct-06 06:28N 35°53' E 014°48'0 0.1
2017-Oct-06 05:58N 35°53' E 014°48'0 0.1
2017-Oct-06 05:28N 35°53' E 014°47'0 0.0
2017-Oct-06 04:58N 35°53' E 014°47'0 0.1
2017-Oct-06 04:28N 35°53' E 014°47'0 0.0
2017-Oct-06 03:58N 35°53' E 014°47'0 0.0
2017-Oct-06 03:28N 35°53' E 014°47'0 0.0
2017-Oct-06 02:58N 35°53' E 014°47'0 0.1
2017-Oct-06 02:28N 35°53' E 014°47'0 0.1
2017-Oct-06 01:55N 35°53' E 014°47'0 0.0
2017-Oct-06 01:25N 35°53' E 014°47'0 0.0
2017-Oct-06 00:58N 35°53' E 014°47'0 0.1
2017-Oct-06 00:28N 35°53' E 014°47'0 0.0
2017-Oct-05 23:55N 35°53' E 014°47'0 0.0
2017-Oct-05 23:28N 35°53' E 014°47'0 0.0
2017-Oct-05 22:55N 35°53' E 014°47'0 0.1
2017-Oct-05 22:22N 35°53' E 014°47'0 0.0
2017-Oct-05 21:58N 35°53' E 014°47'0 0.0
2017-Oct-05 21:28N 35°53' E 014°47'0 0.0
2017-Oct-05 20:58N 35°53' E 014°47'0 0.0
2017-Oct-05 20:28N 35°53' E 014°47'0 0.0
2017-Oct-05 19:55N 35°53' E 014°47'0 0.1
2017-Oct-05 19:28N 35°53' E 014°47'0 0.2
2017-Oct-05 19:00N 35°53' E 014°47'1 1.4
2017-Oct-05 18:29N 35°54' E 014°47'1 2.8
2017-Oct-05 18:01N 35°55' E 014°46'4 6.8
2017-Oct-05 17:30N 35°57' E 014°42'3 6.8
2017-Oct-05 17:00N 35°59' E 014°39'6 3.9
2017-Oct-05 15:30N 36°01' E 014°32'0 0.9
2017-Oct-05 15:00N 36°01' E 014°33'1 1.2
2017-Oct-05 14:30N 36°00' E 014°33'1 1.3
2017-Oct-05 14:00N 35°60' E 014°34'1 1.2
2017-Oct-05 13:30N 35°60' E 014°35'1 1.3
2017-Oct-05 13:00N 35°59' E 014°35'1 1.8
2017-Oct-05 12:30N 35°58' E 014°36'1 2.3
2017-Oct-05 12:00N 35°57' E 014°36'2 3.7
2017-Oct-05 11:30N 35°57' E 014°39'2 4.9
2017-Oct-05 11:00N 35°58' E 014°41'3 5.2
2017-Oct-05 10:30N 35°59' E 014°44'3 5.2
2017-Oct-05 10:00N 35°59' E 014°48'3 5.2
2017-Oct-05 09:29N 35°59' E 014°51'1 1.5
2017-Oct-05 08:59N 35°58' E 014°52'0 0.1
2017-Oct-05 08:13N 35°58' E 014°52'0 0.2
2017-Oct-05 07:58N 35°58' E 014°52'0 0.0
2017-Oct-05 07:28N 35°58' E 014°52'0 0.0
2017-Oct-05 06:58N 35°58' E 014°52'0 0.1
2017-Oct-05 06:19N 35°58' E 014°52'0 0.0
2017-Oct-05 05:55N 35°58' E 014°52'0 0.0
2017-Oct-05 05:10N 35°58' E 014°52'0 0.1
2017-Oct-05 04:58N 35°58' E 014°52'0 0.0
2017-Oct-05 04:28N 35°58' E 014°52'0 0.0
2017-Oct-05 03:52N 35°58' E 014°52'0 0.0
2017-Oct-05 03:28N 35°58' E 014°52'0 0.0
2017-Oct-05 02:19N 35°58' E 014°52'0 0.0
2017-Oct-05 01:55N 35°58' E 014°52'0 0.0
2017-Oct-05 01:28N 35°58' E 014°52'0 0.0
2017-Oct-05 00:55N 35°58' E 014°52'0 0.1
2017-Oct-05 00:28N 35°58' E 014°52'0 0.0
2017-Oct-04 23:58N 35°58' E 014°52'0 0.0
2017-Oct-04 23:28N 35°58' E 014°52'0 0.0
2017-Oct-04 22:58N 35°58' E 014°52'0 0.0
2017-Oct-04 22:25N 35°58' E 014°52'0 0.0
2017-Oct-04 21:46N 35°58' E 014°52'0 0.0
2017-Oct-04 21:22N 35°58' E 014°52'0 0.0
2017-Oct-04 20:58N 35°58' E 014°52'0 0.0
2017-Oct-04 19:34N 35°58' E 014°52'0 0.0
2017-Oct-04 18:13N 35°58' E 014°52'0 0.0
2017-Oct-04 17:31N 35°58' E 014°52'0 0.0
2017-Oct-04 17:13N 35°58' E 014°52'0 0.0
2017-Oct-04 16:22N 35°58' E 014°52'0 0.1
2017-Oct-04 15:55N 35°58' E 014°52'0 0.1
2017-Oct-04 15:25N 35°58' E 014°52'0 0.0
2017-Oct-04 14:58N 35°58' E 014°52'0 0.0
2017-Oct-04 14:13N 35°58' E 014°52'0 0.0
2017-Oct-04 13:55N 35°58' E 014°52'0 0.0
2017-Oct-04 13:16N 35°58' E 014°52'0 0.1
2017-Oct-04 12:52N 35°58' E 014°52'0 0.0
2017-Oct-04 12:13N 35°58' E 014°52'0 0.0
2017-Oct-04 11:49N 35°58' E 014°52'0 0.2
2017-Oct-04 11:28N 35°58' E 014°52'0 0.0
2017-Oct-04 08:43N 35°58' E 014°52'0 0.0
2017-Oct-04 00:19N 35°58' E 014°52'0 0.0
2017-Oct-03 23:40N 35°58' E 014°52'0 0.1
2017-Oct-03 23:22N 35°58' E 014°52'0 0.0
2017-Oct-03 22:25N 35°58' E 014°52'0 0.1
2017-Oct-03 21:55N 35°58' E 014°52'0 0.0
2017-Oct-03 21:22N 35°58' E 014°52'0 0.0
2017-Oct-03 20:52N 35°58' E 014°52'0 0.1
2017-Oct-03 20:28N 35°58' E 014°52'0 0.0
2017-Oct-03 19:55N 35°58' E 014°52'0 0.0
2017-Oct-03 19:22N 35°58' E 014°52'0 0.0
2017-Oct-03 18:43N 35°58' E 014°52'0 0.1
2017-Oct-03 18:25N 35°58' E 014°52'0 0.2
2017-Oct-03 17:43N 35°58' E 014°52'0 0.0
2017-Oct-03 15:49N 35°58' E 014°52'0 0.0
2017-Oct-03 15:22N 35°58' E 014°52'0 0.0
2017-Oct-03 11:43N 35°58' E 014°52'0 0.0
2017-Oct-03 11:25N 35°58' E 014°52'0 0.0
2017-Oct-03 10:55N 35°58' E 014°52'0 0.1
2017-Oct-03 10:28N 35°58' E 014°52'0 0.1
2017-Oct-03 09:52N 35°58' E 014°52'0 0.0
2017-Oct-03 09:28N 35°58' E 014°52'0 0.0
2017-Oct-03 08:55N 35°58' E 014°52'0 0.0
2017-Oct-03 08:25N 35°58' E 014°52'0 0.0
2017-Oct-03 07:58N 35°58' E 014°52'0 0.0
2017-Oct-03 07:28N 35°58' E 014°52'0 0.0
2017-Oct-03 06:55N 35°58' E 014°52'0 0.1
2017-Oct-03 06:25N 35°58' E 014°52'0 0.2
2017-Oct-03 05:55N 35°58' E 014°52'0 0.1
2017-Oct-03 04:52N 35°58' E 014°52'0 0.2
2017-Oct-03 04:28N 35°58' E 014°52'0 0.2
2017-Oct-03 03:52N 35°58' E 014°52'0 0.1
2017-Oct-03 03:19N 35°58' E 014°52'0 0.0
2017-Oct-03 01:37N 35°58' E 014°52'0 0.0
2017-Oct-02 22:13N 35°58' E 014°52'0 0.1
2017-Oct-02 20:07N 35°58' E 014°52'0 0.1
2017-Oct-02 19:55N 35°58' E 014°52'0 0.0
2017-Oct-02 16:13N 35°58' E 014°52'0 0.2
2017-Oct-02 15:07N 35°58' E 014°52'0 0.2
2017-Oct-02 14:55N 35°58' E 014°52'0 0.4
2017-Oct-02 14:25N 35°58' E 014°52'0 0.2
2017-Oct-02 13:58N 35°58' E 014°52'0 0.1
2017-Oct-02 12:52N 35°58' E 014°52'0 0.0
2017-Oct-02 09:22N 35°58' E 014°52'0 0.1
2017-Oct-02 08:01N 35°58' E 014°52'0 0.0
2017-Oct-02 06:58N 35°58' E 014°52'0 0.0
2017-Oct-02 05:40N 35°58' E 014°52'0 0.1
2017-Oct-02 05:28N 35°58' E 014°52'0 0.0
2017-Oct-02 04:55N 35°58' E 014°52'0 0.0
2017-Oct-02 04:25N 35°58' E 014°52'0 0.0
2017-Oct-02 03:58N 35°58' E 014°52'0 0.0
2017-Oct-02 03:28N 35°58' E 014°52'0 0.0
2017-Oct-02 02:55N 35°58' E 014°52'0 0.0
2017-Oct-02 02:25N 35°58' E 014°52'0 0.0
2017-Oct-02 01:40N 35°58' E 014°52'0 0.0
2017-Oct-02 01:25N 35°58' E 014°52'0 0.0
2017-Oct-01 20:49N 35°58' E 014°52'0 0.0
2017-Oct-01 20:25N 35°58' E 014°52'0 0.0
2017-Oct-01 19:58N 35°58' E 014°52'0 0.0
2017-Oct-01 19:19N 35°58' E 014°52'0 0.1
2017-Oct-01 18:46N 35°58' E 014°52'0 0.1
2017-Oct-01 18:28N 35°58' E 014°52'0 0.1
2017-Oct-01 16:58N 35°58' E 014°52'0 0.0
2017-Oct-01 16:04N 35°58' E 014°52'0 0.1
2017-Oct-01 15:58N 35°58' E 014°52'0 0.1
2017-Oct-01 15:22N 35°58' E 014°52'0 0.0
2017-Oct-01 14:58N 35°58' E 014°52'0 0.0
2017-Oct-01 14:28N 35°58' E 014°52'0 0.0
2017-Oct-01 13:58N 35°58' E 014°52'0 0.1
2017-Oct-01 13:07N 35°58' E 014°52'0 0.1
2017-Oct-01 11:46N 35°58' E 014°52'0 0.0
2017-Oct-01 11:25N 35°58' E 014°52'0 0.0
2017-Oct-01 10:58N 35°58' E 014°52'0 0.0
2017-Oct-01 10:19N 35°58' E 014°52'0 0.0
2017-Oct-01 09:52N 35°58' E 014°52'0 0.0
2017-Oct-01 06:43N 35°58' E 014°52'0 0.0
2017-Oct-01 06:19N 35°58' E 014°52'0 0.0
2017-Oct-01 05:58N 35°58' E 014°52'0 0.0
2017-Oct-01 05:25N 35°58' E 014°52'0 0.0
2017-Oct-01 04:55N 35°58' E 014°52'0 0.0
2017-Oct-01 04:13N 35°58' E 014°52'0 0.0
2017-Oct-01 03:40N 35°58' E 014°52'0 0.1
2017-Oct-01 03:22N 35°58' E 014°52'0 0.0
2017-Sep-30 00:09N 35°58' E 014°52'0 0.0
2017-Sep-29 23:42N 35°58' E 014°52'0 0.1
2017-Sep-29 23:30N 35°58' E 014°52'0 0.0
2017-Sep-29 21:18N 35°58' E 014°52'0 0.0
2017-Sep-29 18:57N 35°58' E 014°52'0 0.0
2017-Sep-29 18:21N 35°58' E 014°52'0 0.0
2017-Sep-29 16:18N 35°58' E 014°52'0 0.0
2017-Sep-29 15:51N 35°58' E 014°52'0 0.0
2017-Sep-29 15:09N 35°58' E 014°52'0 0.0
2017-Sep-29 15:00N 35°58' E 014°52'0 0.0
2017-Sep-29 14:18N 35°58' E 014°52'0 0.1
2017-Sep-29 13:51N 35°58' E 014°52'0 0.0
2017-Sep-29 13:27N 35°58' E 014°52'0 0.0
2017-Sep-29 12:48N 35°58' E 014°52'0 0.0
2017-Sep-29 12:27N 35°58' E 014°52'0 0.0
2017-Sep-29 12:00N 35°58' E 014°52'0 0.0
2017-Sep-29 11:30N 35°58' E 014°52'0 0.0
2017-Sep-29 11:00N 35°58' E 014°52'0 0.0
2017-Sep-29 06:30N 35°58' E 014°52'0 0.0
2017-Sep-29 06:00N 35°58' E 014°52'0 0.0
2017-Sep-29 00:38N 35°58' E 014°52'0 0.0
2017-Sep-29 00:08N 35°58' E 014°52'0 0.0
2017-Sep-28 23:56N 35°58' E 014°52'0 0.0
2017-Sep-28 22:17N 35°58' E 014°52'0 0.0
2017-Sep-28 21:29N 35°58' E 014°52'0 0.0
2017-Sep-28 18:50N 35°58' E 014°52'0 0.0
2017-Sep-28 18:29N 35°58' E 014°52'0 0.0
2017-Sep-28 17:11N 35°58' E 014°52'0 0.0
2017-Sep-28 16:56N 35°58' E 014°52'0 0.0
2017-Sep-28 16:29N 35°58' E 014°52'0 0.0
2017-Sep-28 15:59N 35°58' E 014°52'0 0.0
2017-Sep-28 15:29N 35°58' E 014°52'0 0.0
2017-Sep-28 13:44N 35°58' E 014°52'0 0.0
2017-Sep-28 13:26N 35°58' E 014°52'0 0.0
2017-Sep-28 12:50N 35°58' E 014°52'0 0.0
2017-Sep-28 12:14N 35°58' E 014°52'0 0.1
2017-Sep-28 11:56N 35°58' E 014°52'0 0.0
2017-Sep-28 11:17N 35°58' E 014°52'0 0.0
2017-Sep-28 06:44N 35°58' E 014°52'0 0.0
2017-Sep-28 06:14N 35°58' E 014°52'0 0.0
2017-Sep-28 05:44N 35°58' E 014°52'0 0.0
2017-Sep-28 04:29N 35°58' E 014°52'0 0.0
2017-Sep-28 02:38N 35°58' E 014°52'0 0.0
2017-Sep-28 00:29N 35°58' E 014°52'0 0.0
2017-Sep-27 23:08N 35°58' E 014°52'0 0.1
2017-Sep-27 22:53N 35°58' E 014°52'0 0.0
2017-Sep-27 21:11N 35°58' E 014°52'0 0.0
2017-Sep-27 20:56N 35°58' E 014°52'0 0.0
2017-Sep-27 19:47N 35°58' E 014°52'0 0.0
2017-Sep-27 19:29N 35°58' E 014°52'0 0.0
2017-Sep-27 17:59N 35°58' E 014°52'0 0.0
2017-Sep-27 17:26N 35°58' E 014°52'0 0.0
2017-Sep-27 16:50N 35°58' E 014°52'0 0.1
2017-Sep-27 16:23N 35°58' E 014°52'0 0.0
2017-Sep-27 15:44N 35°58' E 014°52'0 0.0
2017-Sep-27 15:29N 35°58' E 014°52'0 0.0
2017-Sep-27 14:59N 35°58' E 014°52'0 0.0
2017-Sep-27 14:20N 35°58' E 014°52'0 0.0
2017-Sep-27 13:59N 35°58' E 014°52'0 0.0
2017-Sep-27 13:14N 35°58' E 014°52'0 0.1
2017-Sep-27 12:59N 35°58' E 014°52'0 0.0
2017-Sep-27 12:29N 35°58' E 014°52'0 0.1
2017-Sep-27 11:56N 35°58' E 014°52'0 0.0
2017-Sep-27 11:29N 35°58' E 014°52'0 0.1
2017-Sep-27 10:59N 35°58' E 014°52'0 0.1
2017-Sep-27 10:29N 35°58' E 014°52'0 0.0
2017-Sep-27 07:47N 35°58' E 014°52'  

Dump ship's entire track history